Aérodrome :
LOGIN :

S'inscrire | Disclaimer

   EN    FR    IT 

 










Légende :    VFR   VFR Marginal   IFR   IFR Intensif   IFR Très Intensif
Visi : 
Plafond : 
>= 8 km
>= 3000ft
5 à 8 km
1000 à 3000 ft
1500m à 5 km
500 à 1000 ft
800 à 1500m
200 à 500 ft
< 800m
< 200 ft
Symboles :   Orages  Brouillard  Fortes neiges  Fortes précipitations  Vent > 20 kt
SIGMETs :   Divers  Orages  Givrage  Turbulence  Onde Orograph.  Cendres Volcan.







- Altitude de l'aérodrome : 416 ft
- Code IATA : OVD


LEAS - Asturias

DERNIER METAR :
  • 181500Z 32004KT 270V040 9999 FEW020 21/14 Q1019 NOSIG

METARs EXPIRÉS :
  • 181430Z 33006KT 260V020 9999 FEW020 21/14 Q1019 NOSIG
  • 181400Z 31008KT 280V360 9999 FEW020 21/15 Q1019 NOSIG
  • 181330Z 32007KT 280V020 9999 FEW020 21/14 Q1020 NOSIG
  • 181300Z 33007KT 300V020 9999 FEW020 21/14 Q1020 NOSIG
  • 181230Z 33007KT 290V020 9999 FEW020 20/15 Q1020 NOSIG

TAF TAF LEAS
Valide du 18 à 15h jusqu'au 19 à 15h UTC


181400Z 1815/1915 32008KT 9999 SCT020 TX22/1914Z TN17/1905Z
PROB40
TEMPO 1818/1909 BKN010 BKN014
TEMPO 1909/1915 04010KT
Pas de NOTAMs connus pour ce terrain.



MET'MAP, la Météo Aéronautique d'un coup d'oeil ! - Copyright ORBIFLY Décembre 2007 - Disclaimer

ORBIFLY MET'MAP TEAM :

Programmation & Développement : Alexandra Zaïnal
Conception & Développement : Baudouin d'Aumeries
Co-Programmation & Développement : Marc-Olivier Méhu
Soutien technique & logistique : Manuel Goepfert

Contact : metmap@orbifly.com




SOURCES & CREDITS :

   NOAA